createdAt,value
2019-03-19T00:00:15.545Z,0.50
2019-03-19T00:02:44.259Z,0.40
2019-03-19T00:05:13.180Z,0.40
2019-03-19T00:07:42.029Z,0.40
2019-03-19T00:10:11.066Z,0.40
2019-03-19T00:12:39.741Z,0.50
2019-03-19T00:15:10.851Z,0.40
2019-03-19T00:17:39.825Z,0.40
2019-03-19T00:20:18.478Z,0.40
2019-03-19T00:22:47.208Z,0.40
2019-03-19T00:25:15.981Z,0.50
2019-03-19T00:27:44.700Z,0.60
2019-03-19T00:30:15.183Z,0.70
2019-03-19T00:32:45.181Z,0.60
2019-03-19T00:35:14.051Z,0.70
2019-03-19T00:37:42.958Z,0.70
2019-03-19T00:40:16.361Z,0.70
2019-03-19T00:42:45.288Z,0.70
2019-03-19T00:45:14.460Z,0.80
2019-03-19T00:47:43.235Z,0.80
2019-03-19T00:50:14.227Z,0.90
2019-03-19T00:52:42.964Z,0.90
2019-03-19T00:55:12.859Z,1.10
2019-03-19T00:57:41.647Z,1.10
2019-03-19T01:00:13.386Z,1.10
2019-03-19T01:02:42.128Z,1.10
2019-03-19T01:05:11.111Z,1.10
2019-03-19T01:15:57.206Z,1.00
2019-03-19T01:18:25.924Z,1.00
2019-03-19T01:32:54.796Z,0.60
2019-03-19T01:35:23.495Z,0.50
2019-03-19T01:54:36.260Z,-0.10
2019-03-19T01:57:05.668Z,-0.30
2019-03-19T01:59:34.317Z,-0.40
2019-03-19T02:02:02.970Z,-0.50
2019-03-19T02:04:31.723Z,-0.60
2019-03-19T02:07:00.698Z,-0.70
2019-03-19T02:09:29.453Z,-0.70
2019-03-19T02:20:17.666Z,-0.80
2019-03-19T02:22:46.873Z,-0.80
2019-03-19T02:25:15.654Z,-0.80
2019-03-19T02:27:44.317Z,-0.80
2019-03-19T02:30:16.666Z,-0.80
2019-03-19T02:32:45.423Z,-0.80
2019-03-19T02:35:14.168Z,-0.70
2019-03-19T02:37:45.888Z,-0.60
2019-03-19T02:40:18.016Z,-0.50
2019-03-19T02:42:46.738Z,-0.40
2019-03-19T02:45:15.865Z,-0.30
2019-03-19T02:47:44.446Z,-0.20
2019-03-19T02:50:15.261Z,-0.30
2019-03-19T02:52:44.018Z,-0.30
2019-03-19T02:55:12.800Z,-0.30
2019-03-19T02:57:41.670Z,-0.30
2019-03-19T03:00:17.142Z,-0.40
2019-03-19T03:02:45.924Z,-0.40
2019-03-19T03:05:21.368Z,-0.40
2019-03-19T03:07:50.118Z,-0.40
2019-03-19T03:10:18.723Z,-0.40
2019-03-19T03:12:48.203Z,-0.30
2019-03-19T03:18:02.678Z,-0.30
2019-03-19T03:28:39.356Z,-0.10
2019-03-19T03:33:44.032Z,-0.20
2019-03-19T03:38:59.051Z,-0.30
2019-03-19T03:41:27.854Z,-0.30
2019-03-19T03:58:00.279Z,-0.80
2019-03-19T04:00:29.156Z,-0.90
2019-03-19T04:02:57.859Z,-0.90
2019-03-19T04:05:26.790Z,-0.80
2019-03-19T04:07:55.513Z,-0.90
2019-03-19T04:10:24.316Z,-0.90
2019-03-19T04:12:53.311Z,-1.00
2019-03-19T04:15:22.274Z,-0.90
2019-03-19T04:17:50.970Z,-0.90
2019-03-19T04:20:19.880Z,-0.90
2019-03-19T04:22:48.571Z,-0.90
2019-03-19T04:25:17.355Z,-0.90
2019-03-19T04:27:46.150Z,-0.90
2019-03-19T04:30:19.403Z,-0.90
2019-03-19T04:32:48.168Z,-1.00
2019-03-19T04:35:16.825Z,-1.20
2019-03-19T04:37:45.499Z,-1.20
2019-03-19T04:40:15.004Z,-1.30
2019-03-19T04:42:44.114Z,-1.40
2019-03-19T04:45:14.211Z,-1.50
2019-03-19T04:47:43.027Z,-1.40
2019-03-19T04:50:13.186Z,-1.30
2019-03-19T04:52:42.162Z,-1.20
2019-03-19T04:55:15.431Z,-1.20
2019-03-19T04:57:44.197Z,-1.40
2019-03-19T05:00:17.544Z,-1.50
2019-03-19T05:02:46.170Z,-1.50
2019-03-19T05:05:14.904Z,-1.60
2019-03-19T05:07:43.823Z,-1.60
2019-03-19T05:10:14.544Z,-1.60
2019-03-19T05:12:43.335Z,-1.50
2019-03-19T05:15:12.248Z,-1.50
2019-03-19T05:17:40.930Z,-1.40
2019-03-19T05:20:19.089Z,-1.40
2019-03-19T05:22:47.867Z,-1.40
2019-03-19T05:25:16.617Z,-1.40
2019-03-19T05:27:45.288Z,-1.50
2019-03-19T05:30:20.741Z,-1.50
2019-03-19T05:32:49.481Z,-1.40
2019-03-19T05:35:18.157Z,-1.30
2019-03-19T05:37:47.042Z,-1.10
2019-03-19T05:40:16.433Z,-1.10
2019-03-19T05:42:45.251Z,-1.10
2019-03-19T05:50:32.509Z,-0.60
2019-03-19T05:53:01.024Z,-0.50
2019-03-19T05:55:29.617Z,-0.40
2019-03-19T05:57:58.179Z,-0.30
2019-03-19T06:00:34.138Z,-0.20
2019-03-19T06:03:02.686Z,-0.20
2019-03-19T06:05:31.163Z,-0.20
2019-03-19T06:07:59.739Z,0.00
2019-03-19T06:10:28.312Z,0.10
2019-03-19T06:12:56.848Z,0.20
2019-03-19T06:15:25.381Z,0.20
2019-03-19T06:17:53.953Z,0.20
2019-03-19T06:20:22.685Z,0.40
2019-03-19T06:22:51.183Z,0.50
2019-03-19T06:25:19.790Z,0.60
2019-03-19T06:27:59.568Z,0.60
2019-03-19T06:30:25.396Z,0.60
2019-03-19T06:32:53.992Z,0.70
2019-03-19T06:35:22.601Z,0.70
2019-03-19T06:37:51.155Z,0.80
2019-03-19T06:40:21.858Z,0.80
2019-03-19T06:42:50.366Z,0.90
2019-03-19T06:45:22.901Z,1.00
2019-03-19T06:47:51.048Z,1.10
2019-03-19T06:50:20.790Z,1.20
2019-03-19T06:52:49.347Z,1.30
2019-03-19T06:55:18.858Z,1.60
2019-03-19T06:57:47.460Z,1.70
2019-03-19T07:00:18.299Z,1.90
2019-03-19T07:02:46.944Z,2.00
2019-03-19T07:05:16.820Z,2.00
2019-03-19T07:07:45.430Z,2.00
2019-03-19T07:10:16.245Z,2.10
2019-03-19T07:12:44.903Z,2.30
2019-03-19T07:15:21.422Z,2.50
2019-03-19T07:17:49.881Z,2.60
2019-03-19T07:20:19.634Z,2.90
2019-03-19T07:22:48.300Z,3.00
2019-03-19T07:25:16.985Z,3.10
2019-03-19T07:27:45.615Z,3.10
2019-03-19T07:30:20.069Z,3.00
2019-03-19T07:32:48.708Z,2.90
2019-03-19T07:35:17.185Z,2.80
2019-03-19T07:37:45.935Z,2.70
2019-03-19T07:40:15.885Z,2.50
2019-03-19T07:42:44.606Z,2.60
2019-03-19T07:45:18.794Z,2.90
2019-03-19T07:47:47.618Z,3.10
2019-03-19T07:50:18.394Z,3.00
2019-03-19T07:52:46.871Z,2.90
2019-03-19T07:55:15.890Z,3.00
2019-03-19T07:57:44.522Z,3.40
2019-03-19T08:00:15.335Z,3.80
2019-03-19T08:02:44.089Z,3.90
2019-03-19T08:05:12.624Z,4.20
2019-03-19T08:07:41.591Z,4.30
2019-03-19T08:10:17.810Z,4.50
2019-03-19T08:12:46.402Z,4.90
2019-03-19T08:15:16.859Z,5.40
2019-03-19T08:17:45.468Z,5.40
2019-03-19T08:20:17.543Z,5.50
2019-03-19T08:22:46.181Z,5.50
2019-03-19T08:25:15.437Z,5.50
2019-03-19T08:27:44.077Z,5.50
2019-03-19T08:30:14.843Z,5.70
2019-03-19T08:32:43.395Z,5.90
2019-03-19T08:35:11.932Z,6.60
2019-03-19T08:37:40.529Z,6.80
2019-03-19T08:40:12.100Z,7.00
2019-03-19T08:42:40.682Z,6.90
2019-03-19T08:45:12.381Z,7.10
2019-03-19T08:47:40.948Z,7.90
2019-03-19T08:50:12.539Z,8.60
2019-03-19T08:52:41.091Z,9.80
2019-03-19T08:55:09.933Z,10.60
2019-03-19T08:57:38.521Z,11.40
2019-03-19T09:00:12.702Z,11.80
2019-03-19T09:02:41.215Z,10.80
2019-03-19T09:05:10.215Z,9.90
2019-03-19T09:07:38.768Z,9.00
2019-03-19T09:10:10.061Z,8.00
2019-03-19T09:12:38.606Z,7.30
2019-03-19T09:15:10.251Z,7.00
2019-03-19T09:17:38.785Z,6.60
2019-03-19T09:20:10.293Z,6.30
2019-03-19T09:22:39.757Z,6.30
2019-03-19T09:25:09.972Z,6.20
2019-03-19T09:27:38.513Z,6.10
2019-03-19T09:30:15.228Z,5.90
2019-03-19T09:32:43.806Z,6.00
2019-03-19T09:35:12.576Z,6.10
2019-03-19T09:37:44.776Z,6.30
2019-03-19T09:40:18.738Z,6.50
2019-03-19T09:42:47.535Z,6.50
2019-03-19T09:45:17.320Z,7.10
2019-03-19T09:47:46.604Z,8.10
2019-03-19T09:50:25.884Z,9.00
2019-03-19T09:52:54.394Z,10.00
2019-03-19T09:55:23.101Z,11.30
2019-03-19T09:57:51.673Z,11.90
2019-03-19T10:00:22.271Z,12.00
2019-03-19T10:02:51.010Z,11.20
2019-03-19T10:05:19.653Z,11.00
2019-03-19T10:07:48.461Z,10.40
2019-03-19T10:10:23.797Z,10.30
2019-03-19T10:12:52.337Z,10.30
2019-03-19T10:15:20.878Z,10.40
2019-03-19T10:17:49.567Z,10.60
2019-03-19T10:20:23.052Z,10.60
2019-03-19T10:22:51.619Z,10.00
2019-03-19T10:25:20.314Z,9.90
2019-03-19T10:27:48.873Z,10.20
2019-03-19T10:30:19.247Z,10.30
2019-03-19T10:32:47.802Z,10.20
2019-03-19T10:35:16.643Z,9.30
2019-03-19T10:37:45.355Z,9.20
2019-03-19T10:40:21.229Z,8.80
2019-03-19T10:42:49.769Z,8.90
2019-03-19T10:45:20.687Z,9.20
2019-03-19T10:47:49.294Z,9.50
2019-03-19T10:50:23.042Z,9.60
2019-03-19T10:52:51.659Z,10.10
2019-03-19T10:55:20.312Z,10.20
2019-03-19T10:57:48.855Z,10.50
2019-03-19T11:00:23.022Z,10.80
2019-03-19T11:02:52.321Z,11.00
2019-03-19T11:05:22.632Z,11.10
2019-03-19T11:07:51.838Z,10.70
2019-03-19T11:10:20.576Z,11.20
2019-03-19T11:12:49.533Z,11.50
2019-03-19T11:15:20.227Z,11.60
2019-03-19T11:17:48.837Z,10.90
2019-03-19T11:20:18.292Z,10.40
2019-03-19T11:22:47.000Z,10.70
2019-03-19T11:25:21.374Z,10.40
2019-03-19T11:27:50.143Z,10.10
2019-03-19T11:30:26.189Z,10.10
2019-03-19T11:32:54.846Z,10.10
2019-03-19T11:35:23.475Z,10.70
2019-03-19T11:37:52.243Z,11.10
2019-03-19T11:40:21.610Z,11.30
2019-03-19T11:42:51.135Z,11.20
2019-03-19T11:45:20.937Z,10.80
2019-03-19T11:47:49.625Z,9.90
2019-03-19T11:50:29.254Z,9.20
2019-03-19T11:52:57.866Z,9.40
2019-03-19T11:55:26.500Z,9.40
2019-03-19T11:57:57.397Z,9.50
2019-03-19T12:00:34.632Z,9.30
2019-03-19T12:03:12.687Z,9.10
2019-03-19T12:05:33.706Z,9.00
2019-03-19T12:08:02.238Z,8.80
2019-03-19T12:10:30.730Z,8.60
2019-03-19T12:12:59.412Z,8.30
2019-03-19T12:15:28.005Z,8.00
2019-03-19T12:17:56.573Z,7.80
2019-03-19T12:20:25.044Z,7.70
2019-03-19T12:22:53.631Z,7.30
2019-03-19T12:25:22.200Z,7.20
2019-03-19T12:27:50.773Z,6.90
2019-03-19T12:32:51.453Z,6.70
2019-03-19T12:35:20.822Z,6.30
2019-03-19T12:37:49.418Z,6.20
2019-03-19T12:40:19.179Z,6.20
2019-03-19T12:42:47.771Z,6.20
2019-03-19T12:45:17.585Z,6.20
2019-03-19T12:47:46.150Z,6.20
2019-03-19T12:50:20.189Z,6.30
2019-03-19T12:52:48.805Z,6.20
2019-03-19T12:55:17.504Z,6.30
2019-03-19T12:57:46.183Z,6.40
2019-03-19T13:00:16.883Z,6.60
2019-03-19T13:02:45.417Z,6.80
2019-03-19T13:05:14.121Z,6.90
2019-03-19T13:07:42.780Z,7.10
2019-03-19T13:10:22.139Z,7.50
2019-03-19T13:12:50.706Z,7.70
2019-03-19T13:15:20.247Z,7.80
2019-03-19T13:17:48.934Z,8.00
2019-03-19T13:20:19.688Z,8.40
2019-03-19T13:22:48.236Z,8.80
2019-03-19T13:25:26.185Z,8.90
2019-03-19T13:27:54.788Z,10.00
2019-03-19T13:30:30.892Z,11.30
2019-03-19T13:32:59.540Z,12.50
2019-03-19T13:35:28.469Z,13.30
2019-03-19T13:38:04.542Z,14.80
2019-03-19T13:40:33.146Z,15.50
2019-03-19T13:43:21.015Z,15.70
2019-03-19T13:45:49.533Z,17.00
2019-03-19T13:48:18.175Z,18.40
2019-03-19T13:50:46.747Z,18.50
2019-03-19T13:53:15.378Z,18.30
2019-03-19T13:55:43.937Z,17.50
2019-03-19T13:58:12.934Z,17.60
2019-03-19T14:00:41.537Z,17.10
2019-03-19T14:03:10.238Z,18.20
2019-03-19T14:05:38.981Z,17.90
2019-03-19T14:08:07.913Z,18.00
2019-03-19T14:10:36.756Z,17.20
2019-03-19T14:13:05.593Z,15.30
2019-03-19T14:15:34.160Z,13.90
2019-03-19T14:18:02.740Z,12.80
2019-03-19T14:20:31.202Z,12.00
2019-03-19T14:22:59.806Z,10.90
2019-03-19T14:25:28.405Z,10.40
2019-03-19T14:27:56.988Z,9.80
2019-03-19T14:30:26.307Z,9.60
2019-03-19T14:32:54.917Z,9.60
2019-03-19T14:35:23.471Z,9.30
2019-03-19T14:37:52.139Z,9.20
2019-03-19T14:40:25.348Z,8.90
2019-03-19T14:42:54.272Z,9.00
2019-03-19T14:45:22.958Z,9.00
2019-03-19T14:47:51.532Z,9.20
2019-03-19T14:50:24.097Z,9.30
2019-03-19T14:52:52.778Z,9.30
2019-03-19T14:55:21.691Z,9.10
2019-03-19T14:57:51.095Z,8.90
2019-03-19T15:00:20.853Z,8.80
2019-03-19T15:02:49.482Z,9.10
2019-03-19T15:05:18.169Z,9.60
2019-03-19T15:07:46.799Z,9.90
2019-03-19T15:10:18.417Z,10.00
2019-03-19T15:12:47.108Z,10.00
2019-03-19T15:15:17.548Z,9.80
2019-03-19T15:17:46.506Z,9.40
2019-03-19T15:20:19.999Z,8.80
2019-03-19T15:22:48.650Z,8.50
2019-03-19T15:25:17.229Z,8.40
2019-03-19T15:27:45.770Z,8.10
2019-03-19T15:30:17.060Z,8.20
2019-03-19T15:32:46.615Z,8.20
2019-03-19T15:35:15.297Z,8.50
2019-03-19T15:37:43.987Z,8.90
2019-03-19T15:40:14.827Z,9.40
2019-03-19T15:42:43.380Z,9.60
2019-03-19T15:45:14.375Z,9.10
2019-03-19T15:47:43.051Z,8.90
2019-03-19T15:50:15.639Z,8.70
2019-03-19T15:52:44.361Z,8.40
2019-03-19T15:55:14.421Z,7.80
2019-03-19T15:57:43.139Z,7.70
2019-03-19T16:00:16.399Z,7.40
2019-03-19T16:02:44.938Z,7.10
2019-03-19T16:05:14.386Z,7.00
2019-03-19T16:07:42.970Z,6.70
2019-03-19T16:10:14.007Z,6.40
2019-03-19T16:12:43.049Z,6.20
2019-03-19T16:15:14.358Z,6.00
2019-03-19T16:17:42.997Z,5.90
2019-03-19T16:20:16.065Z,5.70
2019-03-19T16:22:44.777Z,5.50
2019-03-19T16:25:13.472Z,5.40
2019-03-19T16:27:42.223Z,5.30
2019-03-19T16:30:20.234Z,5.10
2019-03-19T16:32:48.928Z,5.00
2019-03-19T16:35:17.805Z,4.90
2019-03-19T16:37:46.464Z,4.80
2019-03-19T16:40:18.095Z,4.70
2019-03-19T16:42:47.099Z,4.60
2019-03-19T16:45:18.028Z,4.50
2019-03-19T16:47:46.384Z,4.40
2019-03-19T16:50:19.994Z,4.30
2019-03-19T16:52:48.628Z,4.30
2019-03-19T16:55:21.015Z,4.20
2019-03-19T16:57:49.647Z,4.10
2019-03-19T17:00:26.394Z,4.00
2019-03-19T17:02:55.047Z,4.00
2019-03-19T17:05:23.755Z,3.90
2019-03-19T17:07:52.427Z,3.80
2019-03-19T17:10:32.138Z,3.70
2019-03-19T17:13:00.669Z,3.60
2019-03-19T17:15:29.416Z,3.50
2019-03-19T17:17:58.227Z,3.40
2019-03-19T17:20:26.961Z,3.20
2019-03-19T17:22:56.044Z,3.10
2019-03-19T17:25:25.740Z,3.00
2019-03-19T17:27:54.638Z,2.80
2019-03-19T17:30:25.574Z,2.70
2019-03-19T17:32:54.320Z,2.60
2019-03-19T17:35:23.392Z,2.30
2019-03-19T17:37:52.237Z,2.00
2019-03-19T17:40:20.991Z,1.80
2019-03-19T17:42:49.710Z,1.70
2019-03-19T17:45:18.777Z,1.60
2019-03-19T17:47:47.461Z,1.50
2019-03-19T17:50:24.318Z,1.50
2019-03-19T17:52:54.045Z,1.40
2019-03-19T18:01:39.625Z,0.90
2019-03-19T18:04:08.285Z,0.70
2019-03-19T18:06:37.407Z,0.60
2019-03-19T18:09:07.519Z,0.70
2019-03-19T18:11:36.304Z,0.70
2019-03-19T18:14:06.968Z,0.70
2019-03-19T18:16:35.650Z,0.80
2019-03-19T18:19:04.598Z,0.60
2019-03-19T18:21:33.263Z,0.50
2019-03-19T18:24:02.279Z,0.30
2019-03-19T18:26:30.917Z,0.20
2019-03-19T18:28:59.625Z,0.10
2019-03-19T18:31:28.336Z,0.00
2019-03-19T18:33:57.181Z,0.00
2019-03-19T18:36:25.900Z,0.00
2019-03-19T18:38:54.694Z,0.10
2019-03-19T18:41:23.505Z,0.10
2019-03-19T18:46:28.104Z,0.00
2019-03-19T18:48:57.018Z,0.00
2019-03-19T18:51:25.693Z,0.00
2019-03-19T18:53:54.366Z,-0.20
2019-03-19T18:56:23.163Z,-0.30
2019-03-19T18:58:51.869Z,-0.50
2019-03-19T19:01:20.529Z,-0.70
2019-03-19T19:03:49.487Z,-0.70
2019-03-19T19:06:18.306Z,-0.70
2019-03-19T19:08:47.129Z,-0.70
2019-03-19T19:11:16.019Z,-0.70
2019-03-19T19:13:44.762Z,-0.80
2019-03-19T19:16:13.636Z,-0.90
2019-03-19T19:18:42.758Z,-1.00
2019-03-19T19:21:13.046Z,-1.10
2019-03-19T19:23:41.933Z,-1.10
2019-03-19T19:26:10.819Z,-1.10
2019-03-19T19:28:39.619Z,-1.00
2019-03-19T19:31:08.324Z,-1.00
2019-03-19T19:33:37.470Z,-1.10
2019-03-19T19:36:06.368Z,-1.10
2019-03-19T19:38:35.106Z,-1.20
2019-03-19T19:41:03.888Z,-1.20
2019-03-19T19:43:32.582Z,-1.20
2019-03-19T19:46:01.321Z,-1.20
2019-03-19T19:48:30.066Z,-1.10
2019-03-19T19:50:58.786Z,-1.00
2019-03-19T19:53:29.314Z,-0.90
2019-03-19T19:55:58.174Z,-0.70
2019-03-19T19:58:27.018Z,-0.70
2019-03-19T20:00:55.930Z,-0.80
2019-03-19T20:03:24.867Z,-0.90
2019-03-19T20:05:55.521Z,-1.00
2019-03-19T20:08:27.383Z,-1.10
2019-03-19T20:10:56.253Z,-1.20
2019-03-19T20:13:25.017Z,-1.20
2019-03-19T20:15:53.758Z,-1.20
2019-03-19T20:18:22.639Z,-1.30
2019-03-19T20:20:51.512Z,-1.40
2019-03-19T20:23:20.364Z,-1.40
2019-03-19T20:25:49.223Z,-1.50
2019-03-19T20:28:18.103Z,-1.50
2019-03-19T20:30:46.871Z,-1.40
2019-03-19T20:33:24.490Z,-1.30
2019-03-19T20:35:46.405Z,-1.20
2019-03-19T20:38:15.173Z,-1.10
2019-03-19T20:40:43.930Z,-1.00
2019-03-19T20:43:12.663Z,-1.10
2019-03-19T20:45:42.156Z,-1.20
2019-03-19T20:48:10.924Z,-1.20
2019-03-19T20:50:40.914Z,-1.20
2019-03-19T20:53:09.807Z,-1.30
2019-03-19T20:55:40.192Z,-1.30
2019-03-19T20:58:08.877Z,-1.40
2019-03-19T21:00:37.873Z,-1.40
2019-03-19T21:03:06.613Z,-1.40
2019-03-19T21:05:35.395Z,-1.40
2019-03-19T21:08:04.406Z,-1.40
2019-03-19T21:10:33.120Z,-1.40
2019-03-19T21:13:01.935Z,-1.50
2019-03-19T21:15:31.588Z,-1.60
2019-03-19T21:18:00.427Z,-1.50
2019-03-19T21:20:29.166Z,-1.60
2019-03-19T21:23:00.092Z,-1.70
2019-03-19T21:25:29.014Z,-1.80
2019-03-19T21:27:57.676Z,-1.80
2019-03-19T21:30:26.521Z,-1.80
2019-03-19T21:32:55.282Z,-1.90
2019-03-19T21:35:27.345Z,-1.80
2019-03-19T21:37:55.987Z,-1.90
2019-03-19T21:40:24.519Z,-2.00
2019-03-19T21:42:53.035Z,-1.90
2019-03-19T21:45:22.468Z,-2.00
2019-03-19T21:47:51.111Z,-2.10
2019-03-19T21:50:23.665Z,-2.10
2019-03-19T21:52:52.273Z,-2.00
2019-03-19T21:55:20.834Z,-2.00
2019-03-19T21:57:49.398Z,-2.00
2019-03-19T22:00:25.156Z,-1.90
2019-03-19T22:02:53.833Z,-1.80
2019-03-19T22:05:22.455Z,-1.80
2019-03-19T22:07:50.952Z,-1.80
2019-03-19T22:10:23.079Z,-1.70
2019-03-19T22:12:51.685Z,-1.70
2019-03-19T22:15:24.072Z,-1.80
2019-03-19T22:17:52.663Z,-1.90
2019-03-19T22:20:21.579Z,-2.10
2019-03-19T22:22:50.087Z,-2.20
2019-03-19T22:25:18.654Z,-2.20
2019-03-19T22:27:47.258Z,-2.20
2019-03-19T22:30:22.242Z,-2.20
2019-03-19T22:32:50.856Z,-2.20
2019-03-19T22:35:19.367Z,-2.10
2019-03-19T22:37:47.936Z,-2.10
2019-03-19T22:40:17.185Z,-2.10
2019-03-19T22:42:45.646Z,-2.10
2019-03-19T22:45:17.766Z,-2.10
2019-03-19T22:47:46.581Z,-2.20
2019-03-19T22:50:15.933Z,-2.20
2019-03-19T22:52:44.653Z,-2.30
2019-03-19T22:55:14.068Z,-2.30
2019-03-19T22:57:43.114Z,-2.30
2019-03-19T23:00:39.002Z,-2.30
2019-03-19T23:03:08.470Z,-2.30
2019-03-19T23:05:38.002Z,-2.30
2019-03-19T23:08:06.732Z,-2.30
2019-03-19T23:10:35.591Z,-2.20
2019-03-19T23:13:04.727Z,-2.10
2019-03-19T23:15:33.427Z,-2.10
2019-03-19T23:18:02.158Z,-2.20
2019-03-19T23:20:30.718Z,-2.30
2019-03-19T23:22:59.318Z,-2.30
2019-03-19T23:25:27.983Z,-2.30
2019-03-19T23:27:56.636Z,-2.40
2019-03-19T23:30:25.958Z,-2.40
2019-03-19T23:32:54.620Z,-2.40
2019-03-19T23:35:23.152Z,-2.40
2019-03-19T23:37:51.716Z,-2.40
2019-03-19T23:40:20.997Z,-2.50
2019-03-19T23:42:49.576Z,-2.50
2019-03-19T23:45:18.044Z,-2.50
2019-03-19T23:47:46.574Z,-2.50
2019-03-19T23:50:18.881Z,-2.50
2019-03-19T23:52:47.512Z,-2.50
2019-03-19T23:55:15.969Z,-2.50
2019-03-19T23:57:44.584Z,-2.50
